sensor_id;sensor_type;location;lat;lon;timestamp;temperature;humidity
65836;SHT30;52595;51.608;7.216;2022-12-07T00:01:28;5.06;97.29
65836;SHT30;52595;51.608;7.216;2022-12-07T00:03:54;5.04;97.45
65836;SHT30;52595;51.608;7.216;2022-12-07T00:06:29;4.98;97.64
65836;SHT30;52595;51.608;7.216;2022-12-07T00:08:55;5.00;97.48
65836;SHT30;52595;51.608;7.216;2022-12-07T00:11:22;4.96;97.48
65836;SHT30;52595;51.608;7.216;2022-12-07T00:13:52;4.93;97.72
65836;SHT30;52595;51.608;7.216;2022-12-07T00:16:19;4.88;97.92
65836;SHT30;52595;51.608;7.216;2022-12-07T00:18:45;4.91;97.95
65836;SHT30;52595;51.608;7.216;2022-12-07T00:21:13;4.88;98.03
65836;SHT30;52595;51.608;7.216;2022-12-07T00:23:40;4.88;98.00
65836;SHT30;52595;51.608;7.216;2022-12-07T00:26:14;4.86;98.11
65836;SHT30;52595;51.608;7.216;2022-12-07T00:28:40;4.90;97.93
65836;SHT30;52595;51.608;7.216;2022-12-07T00:31:08;4.87;97.96
65836;SHT30;52595;51.608;7.216;2022-12-07T00:33:34;4.86;98.02
65836;SHT30;52595;51.608;7.216;2022-12-07T00:36:02;4.90;98.19
65836;SHT30;52595;51.608;7.216;2022-12-07T00:38:30;4.87;98.06
65836;SHT30;52595;51.608;7.216;2022-12-07T00:41:02;4.86;98.09
65836;SHT30;52595;51.608;7.216;2022-12-07T00:43:28;4.86;98.16
65836;SHT30;52595;51.608;7.216;2022-12-07T00:45:54;4.84;98.04
65836;SHT30;52595;51.608;7.216;2022-12-07T00:48:20;4.86;98.14
65836;SHT30;52595;51.608;7.216;2022-12-07T00:50:45;4.87;98.03
65836;SHT30;52595;51.608;7.216;2022-12-07T00:53:11;4.81;98.11
65836;SHT30;52595;51.608;7.216;2022-12-07T00:55:37;4.83;98.21
65836;SHT30;52595;51.608;7.216;2022-12-07T00:58:03;4.77;98.15
65836;SHT30;52595;51.608;7.216;2022-12-07T01:00:29;4.80;98.31
65836;SHT30;52595;51.608;7.216;2022-12-07T01:02:55;4.79;98.31
65836;SHT30;52595;51.608;7.216;2022-12-07T01:05:20;4.77;98.42
65836;SHT30;52595;51.608;7.216;2022-12-07T01:07:46;4.79;98.41
65836;SHT30;52595;51.608;7.216;2022-12-07T01:10:12;4.74;98.44
65836;SHT30;52595;51.608;7.216;2022-12-07T01:12:38;4.74;98.43
65836;SHT30;52595;51.608;7.216;2022-12-07T01:15:04;4.74;98.51
65836;SHT30;52595;51.608;7.216;2022-12-07T01:17:29;4.74;98.63
65836;SHT30;52595;51.608;7.216;2022-12-07T01:19:55;4.69;98.69
65836;SHT30;52595;51.608;7.216;2022-12-07T01:22:20;4.74;98.72
65836;SHT30;52595;51.608;7.216;2022-12-07T01:24:46;4.72;98.73
65836;SHT30;52595;51.608;7.216;2022-12-07T01:27:13;4.70;98.79
65836;SHT30;52595;51.608;7.216;2022-12-07T01:29:39;4.70;98.83
65836;SHT30;52595;51.608;7.216;2022-12-07T01:32:04;4.70;98.83
65836;SHT30;52595;51.608;7.216;2022-12-07T01:34:29;4.72;98.86
65836;SHT30;52595;51.608;7.216;2022-12-07T01:36:55;4.69;98.83
65836;SHT30;52595;51.608;7.216;2022-12-07T01:39:20;4.73;98.66
65836;SHT30;52595;51.608;7.216;2022-12-07T01:41:46;4.73;98.68
65836;SHT30;52595;51.608;7.216;2022-12-07T01:44:28;4.74;98.75
65836;SHT30;52595;51.608;7.216;2022-12-07T01:47:02;4.72;98.49
65836;SHT30;52595;51.608;7.216;2022-12-07T01:52:03;4.73;98.59
65836;SHT30;52595;51.608;7.216;2022-12-07T01:54:32;4.72;98.57
65836;SHT30;52595;51.608;7.216;2022-12-07T01:56:58;4.67;98.55
65836;SHT30;52595;51.608;7.216;2022-12-07T01:59:25;4.63;98.40
65836;SHT30;52595;51.608;7.216;2022-12-07T02:01:52;4.60;98.42
65836;SHT30;52595;51.608;7.216;2022-12-07T02:04:18;4.62;98.24
65836;SHT30;52595;51.608;7.216;2022-12-07T02:06:44;4.62;98.34
65836;SHT30;52595;51.608;7.216;2022-12-07T02:09:10;4.63;98.30
65836;SHT30;52595;51.608;7.216;2022-12-07T02:11:36;4.63;98.30
65836;SHT30;52595;51.608;7.216;2022-12-07T02:14:02;4.57;98.27
65836;SHT30;52595;51.608;7.216;2022-12-07T02:16:34;4.56;98.44
65836;SHT30;52595;51.608;7.216;2022-12-07T02:22:13;4.53;98.58
65836;SHT30;52595;51.608;7.216;2022-12-07T02:25:16;4.52;98.71
65836;SHT30;52595;51.608;7.216;2022-12-07T02:27:47;4.52;98.84
65836;SHT30;52595;51.608;7.216;2022-12-07T02:30:17;4.52;98.85
65836;SHT30;52595;51.608;7.216;2022-12-07T02:35:32;4.42;98.97
65836;SHT30;52595;51.608;7.216;2022-12-07T02:38:19;4.35;98.93
65836;SHT30;52595;51.608;7.216;2022-12-07T02:40:52;4.28;99.08
65836;SHT30;52595;51.608;7.216;2022-12-07T02:43:25;4.25;99.40
65836;SHT30;52595;51.608;7.216;2022-12-07T02:45:52;4.15;99.56
65836;SHT30;52595;51.608;7.216;2022-12-07T02:48:19;4.03;99.58
65836;SHT30;52595;51.608;7.216;2022-12-07T02:50:50;3.98;99.74
65836;SHT30;52595;51.608;7.216;2022-12-07T02:53:37;3.88;99.99
65836;SHT30;52595;51.608;7.216;2022-12-07T02:56:22;3.75;99.99
65836;SHT30;52595;51.608;7.216;2022-12-07T02:59:13;3.64;99.99
65836;SHT30;52595;51.608;7.216;2022-12-07T03:10:01;3.34;99.99
65836;SHT30;52595;51.608;7.216;2022-12-07T03:12:56;3.41;99.99
65836;SHT30;52595;51.608;7.216;2022-12-07T03:15:29;3.47;99.99
65836;SHT30;52595;51.608;7.216;2022-12-07T03:17:57;3.36;99.99
65836;SHT30;52595;51.608;7.216;2022-12-07T03:20:25;3.26;99.99
65836;SHT30;52595;51.608;7.216;2022-12-07T03:22:53;3.17;99.99
65836;SHT30;52595;51.608;7.216;2022-12-07T03:25:19;3.10;99.99
65836;SHT30;52595;51.608;7.216;2022-12-07T03:27:56;3.00;99.99
65836;SHT30;52595;51.608;7.216;2022-12-07T03:30:26;3.12;99.99
65836;SHT30;52595;51.608;7.216;2022-12-07T03:33:02;3.07;99.99
65836;SHT30;52595;51.608;7.216;2022-12-07T03:35:33;3.02;99.99
65836;SHT30;52595;51.608;7.216;2022-12-07T03:38:14;3.00;99.99
65836;SHT30;52595;51.608;7.216;2022-12-07T03:40:55;3.02;99.99
65836;SHT30;52595;51.608;7.216;2022-12-07T03:43:21;2.91;99.99
65836;SHT30;52595;51.608;7.216;2022-12-07T03:52:22;2.81;99.99
65836;SHT30;52595;51.608;7.216;2022-12-07T03:55:00;2.78;99.99
65836;SHT30;52595;51.608;7.216;2022-12-07T03:57:28;2.92;99.99
65836;SHT30;52595;51.608;7.216;2022-12-07T03:59:56;3.03;99.99
65836;SHT30;52595;51.608;7.216;2022-12-07T04:02:23;2.97;99.99
65836;SHT30;52595;51.608;7.216;2022-12-07T04:04:50;2.96;99.99
65836;SHT30;52595;51.608;7.216;2022-12-07T04:07:15;2.93;99.99
65836;SHT30;52595;51.608;7.216;2022-12-07T04:09:41;2.95;99.99
65836;SHT30;52595;51.608;7.216;2022-12-07T04:12:06;2.88;99.99
65836;SHT30;52595;51.608;7.216;2022-12-07T04:14:32;2.83;99.99
65836;SHT30;52595;51.608;7.216;2022-12-07T04:16:58;2.89;99.99
65836;SHT30;52595;51.608;7.216;2022-12-07T04:19:29;2.88;99.99
65836;SHT30;52595;51.608;7.216;2022-12-07T04:21:55;2.95;99.99
65836;SHT30;52595;51.608;7.216;2022-12-07T04:24:21;2.96;99.99
65836;SHT30;52595;51.608;7.216;2022-12-07T04:26:47;3.03;99.99
65836;SHT30;52595;51.608;7.216;2022-12-07T04:29:13;2.96;99.99
65836;SHT30;52595;51.608;7.216;2022-12-07T04:31:39;2.99;99.99
65836;SHT30;52595;51.608;7.216;2022-12-07T04:34:06;3.03;99.99
65836;SHT30;52595;51.608;7.216;2022-12-07T04:36:32;3.07;99.99
65836;SHT30;52595;51.608;7.216;2022-12-07T04:38:58;3.13;99.99
65836;SHT30;52595;51.608;7.216;2022-12-07T04:41:24;3.17;99.99
65836;SHT30;52595;51.608;7.216;2022-12-07T04:43:57;3.19;99.99
65836;SHT30;52595;51.608;7.216;2022-12-07T04:46:24;3.26;99.99
65836;SHT30;52595;51.608;7.216;2022-12-07T04:48:50;3.28;99.99
65836;SHT30;52595;51.608;7.216;2022-12-07T04:51:19;3.27;99.99
65836;SHT30;52595;51.608;7.216;2022-12-07T04:53:45;3.24;99.99
65836;SHT30;52595;51.608;7.216;2022-12-07T04:56:10;3.27;99.99
65836;SHT30;52595;51.608;7.216;2022-12-07T04:58:36;3.30;99.99
65836;SHT30;52595;51.608;7.216;2022-12-07T05:01:01;3.24;99.99
65836;SHT30;52595;51.608;7.216;2022-12-07T05:03:27;3.24;99.99
65836;SHT30;52595;51.608;7.216;2022-12-07T05:05:52;3.23;99.99
65836;SHT30;52595;51.608;7.216;2022-12-07T05:08:17;3.26;99.99
65836;SHT30;52595;51.608;7.216;2022-12-07T05:10:43;3.28;99.99
65836;SHT30;52595;51.608;7.216;2022-12-07T05:13:08;3.27;99.99
65836;SHT30;52595;51.608;7.216;2022-12-07T05:15:34;3.28;99.99
65836;SHT30;52595;51.608;7.216;2022-12-07T05:17:59;3.24;99.99
65836;SHT30;52595;51.608;7.216;2022-12-07T05:20:24;3.28;99.99
65836;SHT30;52595;51.608;7.216;2022-12-07T05:22:50;3.30;99.99
65836;SHT30;52595;51.608;7.216;2022-12-07T05:25:15;3.36;99.99
65836;SHT30;52595;51.608;7.216;2022-12-07T05:27:41;3.36;99.99
65836;SHT30;52595;51.608;7.216;2022-12-07T05:30:06;3.33;99.99
65836;SHT30;52595;51.608;7.216;2022-12-07T05:32:32;3.37;99.99
65836;SHT30;52595;51.608;7.216;2022-12-07T05:34:57;3.37;99.99
65836;SHT30;52595;51.608;7.216;2022-12-07T05:37:23;3.41;99.99
65836;SHT30;52595;51.608;7.216;2022-12-07T05:39:48;3.43;99.99
65836;SHT30;52595;51.608;7.216;2022-12-07T05:42:14;3.46;99.79
65836;SHT30;52595;51.608;7.216;2022-12-07T05:44:45;3.47;99.74
65836;SHT30;52595;51.608;7.216;2022-12-07T05:47:12;3.47;99.50
65836;SHT30;52595;51.608;7.216;2022-12-07T05:49:38;3.43;99.50
65836;SHT30;52595;51.608;7.216;2022-12-07T05:52:04;3.37;99.74
65836;SHT30;52595;51.608;7.216;2022-12-07T05:54:29;3.37;99.86
65836;SHT30;52595;51.608;7.216;2022-12-07T05:56:55;3.31;99.84
65836;SHT30;52595;51.608;7.216;2022-12-07T05:59:21;3.30;99.86
65836;SHT30;52595;51.608;7.216;2022-12-07T06:04:27;3.36;99.58
65836;SHT30;52595;51.608;7.216;2022-12-07T06:06:53;3.43;99.43
65836;SHT30;52595;51.608;7.216;2022-12-07T06:09:19;3.41;99.25
65836;SHT30;52595;51.608;7.216;2022-12-07T06:11:45;3.41;99.23
65836;SHT30;52595;51.608;7.216;2022-12-07T06:14:29;3.37;99.25
65836;SHT30;52595;51.608;7.216;2022-12-07T06:16:55;3.30;99.36
65836;SHT30;52595;51.608;7.216;2022-12-07T06:19:20;3.24;99.43
65836;SHT30;52595;51.608;7.216;2022-12-07T06:21:46;3.20;99.68
65836;SHT30;52595;51.608;7.216;2022-12-07T06:24:13;3.17;99.79
65836;SHT30;52595;51.608;7.216;2022-12-07T06:26:39;3.22;99.79
65836;SHT30;52595;51.608;7.216;2022-12-07T06:29:04;3.14;99.81
65836;SHT30;52595;51.608;7.216;2022-12-07T06:31:30;3.09;99.91
65836;SHT30;52595;51.608;7.216;2022-12-07T06:33:59;3.10;99.98
65836;SHT30;52595;51.608;7.216;2022-12-07T06:36:25;3.12;99.99
65836;SHT30;52595;51.608;7.216;2022-12-07T06:38:51;3.10;99.97
65836;SHT30;52595;51.608;7.216;2022-12-07T06:41:16;3.07;99.97
65836;SHT30;52595;51.608;7.216;2022-12-07T06:43:41;2.99;99.99
65836;SHT30;52595;51.608;7.216;2022-12-07T06:46:07;2.93;99.99
65836;SHT30;52595;51.608;7.216;2022-12-07T06:48:32;2.83;99.99
65836;SHT30;52595;51.608;7.216;2022-12-07T06:50:58;2.91;99.99
65836;SHT30;52595;51.608;7.216;2022-12-07T06:53:23;2.93;99.99
65836;SHT30;52595;51.608;7.216;2022-12-07T06:55:49;2.85;99.99
65836;SHT30;52595;51.608;7.216;2022-12-07T06:58:14;2.82;99.99
65836;SHT30;52595;51.608;7.216;2022-12-07T07:00:40;2.79;99.99
65836;SHT30;52595;51.608;7.216;2022-12-07T07:03:06;2.83;99.99
65836;SHT30;52595;51.608;7.216;2022-12-07T07:05:31;2.89;99.99
65836;SHT30;52595;51.608;7.216;2022-12-07T07:07:56;2.85;99.99
65836;SHT30;52595;51.608;7.216;2022-12-07T07:10:22;2.75;99.99
65836;SHT30;52595;51.608;7.216;2022-12-07T07:12:47;2.71;99.99
65836;SHT30;52595;51.608;7.216;2022-12-07T07:15:13;2.75;99.99
65836;SHT30;52595;51.608;7.216;2022-12-07T07:17:38;2.79;99.99
65836;SHT30;52595;51.608;7.216;2022-12-07T07:20:04;2.76;99.99
65836;SHT30;52595;51.608;7.216;2022-12-07T07:22:30;2.68;99.99
65836;SHT30;52595;51.608;7.216;2022-12-07T07:24:55;2.46;99.82
65836;SHT30;52595;51.608;7.216;2022-12-07T07:27:21;2.29;99.99
65836;SHT30;52595;51.608;7.216;2022-12-07T07:29:46;2.13;99.99
65836;SHT30;52595;51.608;7.216;2022-12-07T07:32:11;2.00;99.99
65836;SHT30;52595;51.608;7.216;2022-12-07T07:34:37;2.00;99.99
65836;SHT30;52595;51.608;7.216;2022-12-07T07:37:03;2.04;99.99
65836;SHT30;52595;51.608;7.216;2022-12-07T07:39:28;2.07;99.99
65836;SHT30;52595;51.608;7.216;2022-12-07T07:41:53;2.15;99.99
65836;SHT30;52595;51.608;7.216;2022-12-07T07:44:19;2.18;99.99
65836;SHT30;52595;51.608;7.216;2022-12-07T07:46:44;2.14;99.99
65836;SHT30;52595;51.608;7.216;2022-12-07T07:49:10;2.20;99.99
65836;SHT30;52595;51.608;7.216;2022-12-07T07:51:36;2.21;99.99
65836;SHT30;52595;51.608;7.216;2022-12-07T07:54:02;2.14;99.99
65836;SHT30;52595;51.608;7.216;2022-12-07T07:56:27;2.04;99.99
65836;SHT30;52595;51.608;7.216;2022-12-07T07:58:53;1.98;99.99
65836;SHT30;52595;51.608;7.216;2022-12-07T08:01:18;2.00;99.99
65836;SHT30;52595;51.608;7.216;2022-12-07T08:03:46;2.01;99.99
65836;SHT30;52595;51.608;7.216;2022-12-07T08:06:11;2.07;99.99
65836;SHT30;52595;51.608;7.216;2022-12-07T08:08:37;2.06;99.99
65836;SHT30;52595;51.608;7.216;2022-12-07T08:11:06;2.14;99.99
65836;SHT30;52595;51.608;7.216;2022-12-07T08:13:32;2.27;99.99
65836;SHT30;52595;51.608;7.216;2022-12-07T08:15:58;2.52;99.99
65836;SHT30;52595;51.608;7.216;2022-12-07T08:18:23;2.68;99.99
65836;SHT30;52595;51.608;7.216;2022-12-07T08:20:49;2.81;99.99
65836;SHT30;52595;51.608;7.216;2022-12-07T08:23:14;2.95;99.99
65836;SHT30;52595;51.608;7.216;2022-12-07T08:25:40;3.00;99.99
65836;SHT30;52595;51.608;7.216;2022-12-07T08:28:06;3.10;99.99
65836;SHT30;52595;51.608;7.216;2022-12-07T08:30:32;3.12;99.99
65836;SHT30;52595;51.608;7.216;2022-12-07T08:32:58;3.16;99.99
65836;SHT30;52595;51.608;7.216;2022-12-07T08:35:24;3.23;99.86
65836;SHT30;52595;51.608;7.216;2022-12-07T08:37:49;3.28;99.57
65836;SHT30;52595;51.608;7.216;2022-12-07T08:40:15;3.34;99.30
65836;SHT30;52595;51.608;7.216;2022-12-07T08:42:42;3.34;99.15
65836;SHT30;52595;51.608;7.216;2022-12-07T08:45:12;3.34;99.06
65836;SHT30;52595;51.608;7.216;2022-12-07T08:50:12;3.43;98.68
65836;SHT30;52595;51.608;7.216;2022-12-07T08:52:39;3.51;98.55
65836;SHT30;52595;51.608;7.216;2022-12-07T08:55:06;3.61;98.17
65836;SHT30;52595;51.608;7.216;2022-12-07T08:57:33;3.68;97.90
65836;SHT30;52595;51.608;7.216;2022-12-07T08:59:59;3.78;97.65
65836;SHT30;52595;51.608;7.216;2022-12-07T09:02:25;3.87;96.97
65836;SHT30;52595;51.608;7.216;2022-12-07T09:04:50;3.92;96.66
65836;SHT30;52595;51.608;7.216;2022-12-07T09:07:16;4.01;96.12
65836;SHT30;52595;51.608;7.216;2022-12-07T09:09:41;4.11;95.99
65836;SHT30;52595;51.608;7.216;2022-12-07T09:12:07;4.16;96.04
65836;SHT30;52595;51.608;7.216;2022-12-07T09:14:32;4.18;95.77
65836;SHT30;52595;51.608;7.216;2022-12-07T09:17:09;4.18;95.40
65836;SHT30;52595;51.608;7.216;2022-12-07T09:19:34;4.22;95.71
65836;SHT30;52595;51.608;7.216;2022-12-07T09:22:00;4.19;95.43
65836;SHT30;52595;51.608;7.216;2022-12-07T09:24:26;4.22;95.39
65836;SHT30;52595;51.608;7.216;2022-12-07T09:26:51;4.26;94.99
65836;SHT30;52595;51.608;7.216;2022-12-07T09:29:16;4.23;95.23
65836;SHT30;52595;51.608;7.216;2022-12-07T09:31:42;4.21;94.91
65836;SHT30;52595;51.608;7.216;2022-12-07T09:34:07;4.22;95.07
65836;SHT30;52595;51.608;7.216;2022-12-07T09:36:33;4.21;94.84
65836;SHT30;52595;51.608;7.216;2022-12-07T09:38:58;4.23;94.94
65836;SHT30;52595;51.608;7.216;2022-12-07T09:41:25;4.33;94.78
65836;SHT30;52595;51.608;7.216;2022-12-07T09:43:52;4.35;94.22
65836;SHT30;52595;51.608;7.216;2022-12-07T09:46:19;4.46;94.34
65836;SHT30;52595;51.608;7.216;2022-12-07T09:48:46;4.52;93.78
65836;SHT30;52595;51.608;7.216;2022-12-07T09:51:16;4.64;93.54
65836;SHT30;52595;51.608;7.216;2022-12-07T09:53:42;4.63;93.16
65836;SHT30;52595;51.608;7.216;2022-12-07T09:56:12;4.73;92.89
65836;SHT30;52595;51.608;7.216;2022-12-07T09:58:38;4.72;92.84
65836;SHT30;52595;51.608;7.216;2022-12-07T10:03:32;4.53;92.93
65836;SHT30;52595;51.608;7.216;2022-12-07T10:05:58;4.66;93.52
65836;SHT30;52595;51.608;7.216;2022-12-07T10:08:25;4.77;92.78
65836;SHT30;52595;51.608;7.216;2022-12-07T10:10:55;4.98;92.36
65836;SHT30;52595;51.608;7.216;2022-12-07T10:13:38;5.06;91.34
65836;SHT30;52595;51.608;7.216;2022-12-07T10:16:05;5.24;91.27
65836;SHT30;52595;51.608;7.216;2022-12-07T10:18:39;5.18;90.94
65836;SHT30;52595;51.608;7.216;2022-12-07T10:21:38;5.35;91.17
65836;SHT30;52595;51.608;7.216;2022-12-07T10:24:14;5.44;90.20
65836;SHT30;52595;51.608;7.216;2022-12-07T10:31:54;5.38;90.27
65836;SHT30;52595;51.608;7.216;2022-12-07T10:34:34;5.38;90.06
65836;SHT30;52595;51.608;7.216;2022-12-07T10:39:49;5.45;90.84
65836;SHT30;52595;51.608;7.216;2022-12-07T10:42:20;5.52;90.01
65836;SHT30;52595;51.608;7.216;2022-12-07T10:44:46;5.48;90.10
65836;SHT30;52595;51.608;7.216;2022-12-07T10:50:29;5.59;90.08
65836;SHT30;52595;51.608;7.216;2022-12-07T11:01:06;5.44;90.16
65836;SHT30;52595;51.608;7.216;2022-12-07T11:15:51;5.35;90.47
65836;SHT30;52595;51.608;7.216;2022-12-07T11:18:31;5.54;90.34
65836;SHT30;52595;51.608;7.216;2022-12-07T11:24:01;5.86;89.56
65836;SHT30;52595;51.608;7.216;2022-12-07T11:26:39;6.03;88.92
65836;SHT30;52595;51.608;7.216;2022-12-07T11:35:05;5.78;89.08
65836;SHT30;52595;51.608;7.216;2022-12-07T11:37:35;5.82;88.57
65836;SHT30;52595;51.608;7.216;2022-12-07T11:40:26;5.85;88.18
65836;SHT30;52595;51.608;7.216;2022-12-07T11:42:59;5.69;88.45
65836;SHT30;52595;51.608;7.216;2022-12-07T11:45:29;5.81;88.95
65836;SHT30;52595;51.608;7.216;2022-12-07T11:48:28;5.83;88.07
65836;SHT30;52595;51.608;7.216;2022-12-07T11:50:55;5.85;88.41
65836;SHT30;52595;51.608;7.216;2022-12-07T11:53:49;5.89;88.25
65836;SHT30;52595;51.608;7.216;2022-12-07T11:56:21;5.79;88.78
65836;SHT30;52595;51.608;7.216;2022-12-07T12:03:45;5.98;88.13
65836;SHT30;52595;51.608;7.216;2022-12-07T12:06:11;6.13;87.32
65836;SHT30;52595;51.608;7.216;2022-12-07T12:08:53;6.37;86.45
65836;SHT30;52595;51.608;7.216;2022-12-07T12:11:43;6.73;86.45
65836;SHT30;52595;51.608;7.216;2022-12-07T12:14:24;6.73;85.53
65836;SHT30;52595;51.608;7.216;2022-12-07T12:17:00;6.61;86.12
65836;SHT30;52595;51.608;7.216;2022-12-07T12:20:00;6.32;86.58
65836;SHT30;52595;51.608;7.216;2022-12-07T12:22:33;6.27;86.90
65836;SHT30;52595;51.608;7.216;2022-12-07T12:24:59;6.14;87.59
65836;SHT30;52595;51.608;7.216;2022-12-07T12:27:34;6.05;87.92
65836;SHT30;52595;51.608;7.216;2022-12-07T12:30:29;6.16;87.34
65836;SHT30;52595;51.608;7.216;2022-12-07T12:32:51;6.24;87.40
65836;SHT30;52595;51.608;7.216;2022-12-07T12:35:29;6.12;87.06
65836;SHT30;52595;51.608;7.216;2022-12-07T12:40:46;6.20;87.14
65836;SHT30;52595;51.608;7.216;2022-12-07T12:43:41;6.14;87.12
65836;SHT30;52595;51.608;7.216;2022-12-07T12:49:13;6.10;87.19
65836;SHT30;52595;51.608;7.216;2022-12-07T12:51:41;6.10;86.95
65836;SHT30;52595;51.608;7.216;2022-12-07T12:56:48;6.09;87.21
65836;SHT30;52595;51.608;7.216;2022-12-07T13:01:55;6.12;87.12
65836;SHT30;52595;51.608;7.216;2022-12-07T13:04:22;6.09;87.44
65836;SHT30;52595;51.608;7.216;2022-12-07T13:06:49;6.06;87.09
65836;SHT30;52595;51.608;7.216;2022-12-07T13:09:21;5.99;86.89
65836;SHT30;52595;51.608;7.216;2022-12-07T13:11:48;5.93;86.84
65836;SHT30;52595;51.608;7.216;2022-12-07T13:14:40;5.89;87.15
65836;SHT30;52595;51.608;7.216;2022-12-07T13:25:29;5.83;87.73
65836;SHT30;52595;51.608;7.216;2022-12-07T13:33:35;5.56;89.72
65836;SHT30;52595;51.608;7.216;2022-12-07T13:36:01;5.58;90.00
65836;SHT30;52595;51.608;7.216;2022-12-07T13:38:32;5.69;89.65
65836;SHT30;52595;51.608;7.216;2022-12-07T13:43:29;5.75;90.05
65836;SHT30;52595;51.608;7.216;2022-12-07T13:45:59;5.65;90.66
65836;SHT30;52595;51.608;7.216;2022-12-07T13:48:48;5.16;90.42
65836;SHT30;52595;51.608;7.216;2022-12-07T13:51:28;4.96;93.63
65836;SHT30;52595;51.608;7.216;2022-12-07T13:54:10;4.69;95.57
65836;SHT30;52595;51.608;7.216;2022-12-07T13:56:36;4.66;94.97
65836;SHT30;52595;51.608;7.216;2022-12-07T13:59:02;4.72;96.26
65836;SHT30;52595;51.608;7.216;2022-12-07T14:01:32;4.90;95.56
65836;SHT30;52595;51.608;7.216;2022-12-07T14:04:36;4.81;95.24
65836;SHT30;52595;51.608;7.216;2022-12-07T14:07:19;5.49;94.40
65836;SHT30;52595;51.608;7.216;2022-12-07T14:09:57;5.98;91.89
65836;SHT30;52595;51.608;7.216;2022-12-07T14:12:25;6.24;91.05
65836;SHT30;52595;51.608;7.216;2022-12-07T14:14:51;6.34;89.63
65836;SHT30;52595;51.608;7.216;2022-12-07T14:17:19;6.38;89.32
65836;SHT30;52595;51.608;7.216;2022-12-07T14:22:23;6.37;87.80
65836;SHT30;52595;51.608;7.216;2022-12-07T14:24:49;6.54;87.08
65836;SHT30;52595;51.608;7.216;2022-12-07T14:27:19;6.60;86.87
65836;SHT30;52595;51.608;7.216;2022-12-07T14:29:46;6.70;86.25
65836;SHT30;52595;51.608;7.216;2022-12-07T14:32:34;6.51;87.21
65836;SHT30;52595;51.608;7.216;2022-12-07T14:35:09;6.33;87.49
65836;SHT30;52595;51.608;7.216;2022-12-07T14:37:39;6.16;87.94
65836;SHT30;52595;51.608;7.216;2022-12-07T14:40:05;6.30;87.84
65836;SHT30;52595;51.608;7.216;2022-12-07T14:42:33;6.43;87.34
65836;SHT30;52595;51.608;7.216;2022-12-07T14:44:59;6.43;86.95
65836;SHT30;52595;51.608;7.216;2022-12-07T14:47:26;6.05;88.05
65836;SHT30;52595;51.608;7.216;2022-12-07T14:49:51;5.81;89.25
65836;SHT30;52595;51.608;7.216;2022-12-07T14:52:20;5.69;89.54
65836;SHT30;52595;51.608;7.216;2022-12-07T14:54:46;5.56;89.79
65836;SHT30;52595;51.608;7.216;2022-12-07T14:57:12;5.38;90.46
65836;SHT30;52595;51.608;7.216;2022-12-07T14:59:37;5.06;91.76
65836;SHT30;52595;51.608;7.216;2022-12-07T15:02:03;4.93;92.04
65836;SHT30;52595;51.608;7.216;2022-12-07T15:04:29;4.79;92.82
65836;SHT30;52595;51.608;7.216;2022-12-07T15:06:59;4.67;93.06
65836;SHT30;52595;51.608;7.216;2022-12-07T15:09:25;4.63;93.19
65836;SHT30;52595;51.608;7.216;2022-12-07T15:11:51;4.56;93.37
65836;SHT30;52595;51.608;7.216;2022-12-07T15:14:16;4.53;93.65
65836;SHT30;52595;51.608;7.216;2022-12-07T15:16:42;4.49;93.57
65836;SHT30;52595;51.608;7.216;2022-12-07T15:19:20;4.45;93.83
65836;SHT30;52595;51.608;7.216;2022-12-07T15:21:51;4.39;94.08
65836;SHT30;52595;51.608;7.216;2022-12-07T15:24:16;4.42;93.94
65836;SHT30;52595;51.608;7.216;2022-12-07T15:26:42;4.36;94.25
65836;SHT30;52595;51.608;7.216;2022-12-07T15:29:08;4.36;94.29
65836;SHT30;52595;51.608;7.216;2022-12-07T15:31:34;4.33;94.42
65836;SHT30;52595;51.608;7.216;2022-12-07T15:34:00;4.29;94.62
65836;SHT30;52595;51.608;7.216;2022-12-07T15:36:27;4.31;94.59
65836;SHT30;52595;51.608;7.216;2022-12-07T15:38:53;4.31;94.58
65836;SHT30;52595;51.608;7.216;2022-12-07T15:41:19;4.23;94.75
65836;SHT30;52595;51.608;7.216;2022-12-07T15:43:45;4.21;94.89
65836;SHT30;52595;51.608;7.216;2022-12-07T15:46:34;4.19;94.99
65836;SHT30;52595;51.608;7.216;2022-12-07T15:49:00;4.15;95.08
65836;SHT30;52595;51.608;7.216;2022-12-07T15:51:26;4.16;95.08
65836;SHT30;52595;51.608;7.216;2022-12-07T15:53:51;4.13;95.23
65836;SHT30;52595;51.608;7.216;2022-12-07T15:56:17;4.12;95.28
65836;SHT30;52595;51.608;7.216;2022-12-07T15:58:42;4.11;95.41
65836;SHT30;52595;51.608;7.216;2022-12-07T16:01:12;4.19;95.21
65836;SHT30;52595;51.608;7.216;2022-12-07T16:03:37;4.23;95.02
65836;SHT30;52595;51.608;7.216;2022-12-07T16:06:03;4.21;95.09
65836;SHT30;52595;51.608;7.216;2022-12-07T16:08:29;4.22;95.18
65836;SHT30;52595;51.608;7.216;2022-12-07T16:10:54;4.21;95.10
65836;SHT30;52595;51.608;7.216;2022-12-07T16:13:19;4.25;95.10
65836;SHT30;52595;51.608;7.216;2022-12-07T16:15:46;4.35;94.81
65836;SHT30;52595;51.608;7.216;2022-12-07T16:18:11;4.33;94.88
65836;SHT30;52595;51.608;7.216;2022-12-07T16:20:37;4.36;94.71
65836;SHT30;52595;51.608;7.216;2022-12-07T16:23:03;4.38;94.79
65836;SHT30;52595;51.608;7.216;2022-12-07T16:25:28;4.36;94.89
65836;SHT30;52595;51.608;7.216;2022-12-07T16:27:54;4.42;94.75
65836;SHT30;52595;51.608;7.216;2022-12-07T16:30:19;4.43;94.73
65836;SHT30;52595;51.608;7.216;2022-12-07T16:32:45;4.43;94.76
65836;SHT30;52595;51.608;7.216;2022-12-07T16:35:11;4.45;94.64
65836;SHT30;52595;51.608;7.216;2022-12-07T16:37:37;4.48;94.53
65836;SHT30;52595;51.608;7.216;2022-12-07T16:40:02;4.46;94.46
65836;SHT30;52595;51.608;7.216;2022-12-07T16:42:32;4.45;94.57
65836;SHT30;52595;51.608;7.216;2022-12-07T16:44:57;4.48;94.48
65836;SHT30;52595;51.608;7.216;2022-12-07T16:47:23;4.46;94.42
65836;SHT30;52595;51.608;7.216;2022-12-07T16:49:48;4.53;94.00
65836;SHT30;52595;51.608;7.216;2022-12-07T16:52:13;4.54;93.81
65836;SHT30;52595;51.608;7.216;2022-12-07T16:54:39;4.64;93.10
65836;SHT30;52595;51.608;7.216;2022-12-07T16:57:04;4.67;93.36
65836;SHT30;52595;51.608;7.216;2022-12-07T16:59:30;4.62;93.53
65836;SHT30;52595;51.608;7.216;2022-12-07T17:01:55;4.59;93.52
65836;SHT30;52595;51.608;7.216;2022-12-07T17:04:20;4.52;93.91
65836;SHT30;52595;51.608;7.216;2022-12-07T17:06:46;4.49;94.23
65836;SHT30;52595;51.608;7.216;2022-12-07T17:09:11;4.46;94.18
65836;SHT30;52595;51.608;7.216;2022-12-07T17:11:37;4.48;93.81
65836;SHT30;52595;51.608;7.216;2022-12-07T17:14:03;4.49;93.63
65836;SHT30;52595;51.608;7.216;2022-12-07T17:16:47;4.50;93.69
65836;SHT30;52595;51.608;7.216;2022-12-07T17:19:14;4.50;93.62
65836;SHT30;52595;51.608;7.216;2022-12-07T17:21:41;4.50;93.31
65836;SHT30;52595;51.608;7.216;2022-12-07T17:24:09;4.50;93.35
65836;SHT30;52595;51.608;7.216;2022-12-07T17:26:35;4.52;93.22
65836;SHT30;52595;51.608;7.216;2022-12-07T17:29:00;4.46;93.38
65836;SHT30;52595;51.608;7.216;2022-12-07T17:31:26;4.42;93.60
65836;SHT30;52595;51.608;7.216;2022-12-07T17:33:52;4.38;93.98
65836;SHT30;52595;51.608;7.216;2022-12-07T17:36:20;4.35;94.23
65836;SHT30;52595;51.608;7.216;2022-12-07T17:38:46;4.35;94.20
65836;SHT30;52595;51.608;7.216;2022-12-07T17:41:30;4.25;94.32